sensor_id;sensor_type;location;lat;lon;timestamp;pressure;altitude;pressure_sealevel;temperature;humidity
68169;BME280;54981;50.206;15.978;2024-01-27T00:01:46;99759.19;;;3.91;100.00
68169;BME280;54981;50.206;15.978;2024-01-27T00:16:47;99779.72;;;3.68;100.00
68169;BME280;54981;50.206;15.978;2024-01-27T00:31:47;99797.25;;;3.70;100.00
68169;BME280;54981;50.206;15.978;2024-01-27T00:46:49;99808.34;;;3.94;100.00
68169;BME280;54981;50.206;15.978;2024-01-27T01:01:49;99828.38;;;4.04;100.00
68169;BME280;54981;50.206;15.978;2024-01-27T01:16:50;99831.13;;;3.96;100.00
68169;BME280;54981;50.206;15.978;2024-01-27T01:31:50;99853.91;;;4.02;100.00
68169;BME280;54981;50.206;15.978;2024-01-27T01:46:50;99855.81;;;3.92;100.00
68169;BME280;54981;50.206;15.978;2024-01-27T02:01:51;99876.84;;;3.94;100.00
68169;BME280;54981;50.206;15.978;2024-01-27T02:16:51;99874.31;;;3.88;100.00
68169;BME280;54981;50.206;15.978;2024-01-27T02:31:52;99887.59;;;3.77;100.00
68169;BME280;54981;50.206;15.978;2024-01-27T02:46:52;99895.28;;;3.94;100.00
68169;BME280;54981;50.206;15.978;2024-01-27T03:01:53;99906.88;;;3.80;100.00
68169;BME280;54981;50.206;15.978;2024-01-27T03:16:53;99899.94;;;3.73;100.00
68169;BME280;54981;50.206;15.978;2024-01-27T03:31:53;99900.84;;;3.71;100.00
68169;BME280;54981;50.206;15.978;2024-01-27T03:46:54;99941.22;;;3.70;100.00
68169;BME280;54981;50.206;15.978;2024-01-27T04:01:54;99948.31;;;3.66;100.00
68169;BME280;54981;50.206;15.978;2024-01-27T04:16:55;99948.22;;;3.75;100.00
68169;BME280;54981;50.206;15.978;2024-01-27T04:31:56;99964.22;;;3.55;100.00
68169;BME280;54981;50.206;15.978;2024-01-27T04:46:56;99976.59;;;3.47;100.00
68169;BME280;54981;50.206;15.978;2024-01-27T05:01:56;99975.72;;;3.44;100.00
68169;BME280;54981;50.206;15.978;2024-01-27T05:16:57;99986.41;;;3.28;100.00
68169;BME280;54981;50.206;15.978;2024-01-27T05:31:57;99990.97;;;3.06;100.00
68169;BME280;54981;50.206;15.978;2024-01-27T05:46:57;100025.16;;;3.09;100.00
68169;BME280;54981;50.206;15.978;2024-01-27T06:01:58;100050.50;;;3.19;100.00
68169;BME280;54981;50.206;15.978;2024-01-27T06:16:58;100064.53;;;3.22;100.00
68169;BME280;54981;50.206;15.978;2024-01-27T06:32:00;100091.75;;;3.17;100.00
68169;BME280;54981;50.206;15.978;2024-01-27T06:47:00;100102.34;;;3.05;100.00
68169;BME280;54981;50.206;15.978;2024-01-27T07:02:00;100116.41;;;2.98;100.00
68169;BME280;54981;50.206;15.978;2024-01-27T07:17:01;100138.44;;;2.86;100.00
68169;BME280;54981;50.206;15.978;2024-01-27T07:32:01;100157.66;;;2.93;100.00
68169;BME280;54981;50.206;15.978;2024-01-27T07:47:02;100162.88;;;3.02;100.00
68169;BME280;54981;50.206;15.978;2024-01-27T08:02:02;100169.00;;;3.09;100.00
68169;BME280;54981;50.206;15.978;2024-01-27T08:17:03;100171.56;;;3.23;100.00
68169;BME280;54981;50.206;15.978;2024-01-27T08:32:04;100180.25;;;3.34;100.00
68169;BME280;54981;50.206;15.978;2024-01-27T08:47:05;100196.00;;;3.46;100.00
68169;BME280;54981;50.206;15.978;2024-01-27T09:02:05;100201.13;;;3.68;100.00
68169;BME280;54981;50.206;15.978;2024-01-27T09:17:06;100207.25;;;3.71;100.00
68169;BME280;54981;50.206;15.978;2024-01-27T09:32:06;100215.94;;;3.86;100.00
68169;BME280;54981;50.206;15.978;2024-01-27T09:47:07;100221.16;;;3.92;100.00
68169;BME280;54981;50.206;15.978;2024-01-27T10:02:11;100243.88;;;4.08;100.00
68169;BME280;54981;50.206;15.978;2024-01-27T10:17:12;100224.41;;;4.23;100.00
68169;BME280;54981;50.206;15.978;2024-01-27T10:32:12;100209.56;;;4.13;100.00
68169;BME280;54981;50.206;15.978;2024-01-27T10:47:15;100229.72;;;4.18;100.00
68169;BME280;54981;50.206;15.978;2024-01-27T11:02:40;100227.81;;;4.39;100.00
68169;BME280;54981;50.206;15.978;2024-01-27T11:17:59;100227.72;;;4.48;100.00
68169;BME280;54981;50.206;15.978;2024-01-27T11:33:04;100229.38;;;4.58;100.00
68169;BME280;54981;50.206;15.978;2024-01-27T11:48:05;100238.13;;;4.65;100.00
68169;BME280;54981;50.206;15.978;2024-01-27T12:03:06;100262.81;;;4.56;100.00
68169;BME280;54981;50.206;15.978;2024-01-27T12:18:07;100252.22;;;4.62;100.00
68169;BME280;54981;50.206;15.978;2024-01-27T12:33:09;100285.63;;;4.60;100.00
68169;BME280;54981;50.206;15.978;2024-01-27T12:48:12;100293.56;;;4.59;100.00
68169;BME280;54981;50.206;15.978;2024-01-27T13:03:12;100282.06;;;4.67;100.00
68169;BME280;54981;50.206;15.978;2024-01-27T13:18:13;100294.31;;;4.73;100.00
68169;BME280;54981;50.206;15.978;2024-01-27T13:33:13;100302.25;;;4.70;100.00
68169;BME280;54981;50.206;15.978;2024-01-27T13:48:14;100324.16;;;4.78;100.00
68169;BME280;54981;50.206;15.978;2024-01-27T14:03:15;100331.47;;;4.47;100.00
68169;BME280;54981;50.206;15.978;2024-01-27T14:18:16;100321.91;;;4.32;100.00
68169;BME280;54981;50.206;15.978;2024-01-27T14:33:20;100347.50;;;4.18;100.00
68169;BME280;54981;50.206;15.978;2024-01-27T14:48:21;100386.16;;;4.16;100.00
68169;BME280;54981;50.206;15.978;2024-01-27T15:03:22;100391.44;;;4.16;100.00
68169;BME280;54981;50.206;15.978;2024-01-27T15:18:26;100395.13;;;3.82;100.00
68169;BME280;54981;50.206;15.978;2024-01-27T15:33:26;100405.78;;;3.47;100.00
68169;BME280;54981;50.206;15.978;2024-01-27T15:48:26;100423.38;;;3.10;100.00
68169;BME280;54981;50.206;15.978;2024-01-27T16:03:28;100441.81;;;3.08;100.00
68169;BME280;54981;50.206;15.978;2024-01-27T16:18:28;100476.00;;;2.79;100.00
68169;BME280;54981;50.206;15.978;2024-01-27T16:33:29;100487.38;;;2.70;100.00
68169;BME280;54981;50.206;15.978;2024-01-27T16:48:29;100490.84;;;2.69;100.00
68169;BME280;54981;50.206;15.978;2024-01-27T17:03:31;100500.31;;;2.10;100.00
68169;BME280;54981;50.206;15.978;2024-01-27T17:18:31;100517.97;;;2.39;100.00
68169;BME280;54981;50.206;15.978;2024-01-27T17:33:31;100519.66;;;2.25;100.00
68169;BME280;54981;50.206;15.978;2024-01-27T17:48:32;100538.78;;;1.99;100.00
68169;BME280;54981;50.206;15.978;2024-01-27T18:03:32;100554.22;;;1.47;100.00
68169;BME280;54981;50.206;15.978;2024-01-27T18:18:32;100570.97;;;1.67;100.00
68169;BME280;54981;50.206;15.978;2024-01-27T18:33:33;100593.28;;;1.15;100.00
68169;BME280;54981;50.206;15.978;2024-01-27T18:48:36;100611.25;;;0.78;100.00
68169;BME280;54981;50.206;15.978;2024-01-27T19:03:40;100616.31;;;0.64;100.00
68169;BME280;54981;50.206;15.978;2024-01-27T19:18:40;100632.56;;;0.37;100.00
68169;BME280;54981;50.206;15.978;2024-01-27T19:33:40;100642.72;;;0.12;100.00
68169;BME280;54981;50.206;15.978;2024-01-27T19:48:41;100659.59;;;-0.24;100.00
68169;BME280;54981;50.206;15.978;2024-01-27T20:03:41;100680.91;;;-0.52;100.00
68169;BME280;54981;50.206;15.978;2024-01-27T20:18:42;100680.13;;;-0.47;100.00
68169;BME280;54981;50.206;15.978;2024-01-27T20:33:43;100697.81;;;-0.80;100.00
68169;BME280;54981;50.206;15.978;2024-01-27T20:48:43;100693.41;;;-0.83;100.00
68169;BME280;54981;50.206;15.978;2024-01-27T21:03:44;100691.00;;;-1.18;100.00
68169;BME280;54981;50.206;15.978;2024-01-27T22:06:13;100754.81;;;0.35;100.00
68169;BME280;54981;50.206;15.978;2024-01-27T22:37:12;100782.94;;;-0.07;100.00
68169;BME280;54981;50.206;15.978;2024-01-27T22:52:44;100762.75;;;-0.58;100.00
68169;BME280;54981;50.206;15.978;2024-01-27T23:23:34;100796.63;;;-1.08;100.00
68169;BME280;54981;50.206;15.978;2024-01-27T23:38:37;100795.91;;;-1.39;100.00
68169;BME280;54981;50.206;15.978;2024-01-27T23:53:40;100778.28;;;-1.49;100.00
